sensor_id;sensor_type;location;lat;lon;timestamp;pressure;altitude;pressure_sealevel;temperature;humidity
34237;BME280;20501;45.956;13.632;2022-07-23T00:00:39;100577.56;;;26.48;42.95
34237;BME280;20501;45.956;13.632;2022-07-23T00:03:05;100570.84;;;26.44;44.69
34237;BME280;20501;45.956;13.632;2022-07-23T00:05:31;100573.00;;;26.41;45.35
34237;BME280;20501;45.956;13.632;2022-07-23T00:07:56;100569.63;;;26.39;43.66
34237;BME280;20501;45.956;13.632;2022-07-23T00:10:22;100569.78;;;26.33;44.02
34237;BME280;20501;45.956;13.632;2022-07-23T00:12:47;100571.72;;;26.32;43.54
34237;BME280;20501;45.956;13.632;2022-07-23T00:15:13;100568.50;;;26.23;44.30
34237;BME280;20501;45.956;13.632;2022-07-23T00:17:38;100570.31;;;26.18;46.22
34237;BME280;20501;45.956;13.632;2022-07-23T00:20:04;100570.69;;;26.09;44.47
34237;BME280;20501;45.956;13.632;2022-07-23T00:22:30;100565.16;;;26.09;44.15
34237;BME280;20501;45.956;13.632;2022-07-23T00:24:56;100561.75;;;26.07;44.05
34237;BME280;20501;45.956;13.632;2022-07-23T00:27:21;100557.31;;;26.06;44.20
34237;BME280;20501;45.956;13.632;2022-07-23T00:29:47;100552.97;;;25.99;44.39
34237;BME280;20501;45.956;13.632;2022-07-23T00:32:12;100559.50;;;25.92;44.51
34237;BME280;20501;45.956;13.632;2022-07-23T00:34:38;100551.19;;;25.92;45.18
34237;BME280;20501;45.956;13.632;2022-07-23T00:37:03;100551.06;;;25.87;45.47
34237;BME280;20501;45.956;13.632;2022-07-23T00:39:29;100551.09;;;25.75;45.26
34237;BME280;20501;45.956;13.632;2022-07-23T00:41:54;100545.91;;;25.79;45.33
34237;BME280;20501;45.956;13.632;2022-07-23T00:44:24;100542.56;;;25.77;44.89
34237;BME280;20501;45.956;13.632;2022-07-23T00:46:52;100548.00;;;25.72;44.99
34237;BME280;20501;45.956;13.632;2022-07-23T00:49:20;100548.22;;;25.70;45.21
34237;BME280;20501;45.956;13.632;2022-07-23T00:51:47;100542.19;;;25.73;45.13
34237;BME280;20501;45.956;13.632;2022-07-23T00:54:13;100545.81;;;25.74;45.12
34237;BME280;20501;45.956;13.632;2022-07-23T00:56:39;100546.03;;;25.72;45.95
34237;BME280;20501;45.956;13.632;2022-07-23T00:59:06;100549.78;;;25.66;45.48
34237;BME280;20501;45.956;13.632;2022-07-23T01:01:32;100534.53;;;25.63;45.82
34237;BME280;20501;45.956;13.632;2022-07-23T01:03:57;100535.34;;;25.64;45.49
34237;BME280;20501;45.956;13.632;2022-07-23T01:06:23;100536.44;;;25.63;45.92
34237;BME280;20501;45.956;13.632;2022-07-23T01:08:48;100525.28;;;25.58;46.00
34237;BME280;20501;45.956;13.632;2022-07-23T01:11:14;100531.88;;;25.57;45.29
34237;BME280;20501;45.956;13.632;2022-07-23T01:13:43;100526.34;;;25.57;45.08
34237;BME280;20501;45.956;13.632;2022-07-23T01:16:09;100521.66;;;25.57;44.86
34237;BME280;20501;45.956;13.632;2022-07-23T01:18:34;100516.38;;;25.56;43.88
34237;BME280;20501;45.956;13.632;2022-07-23T01:20:59;100511.78;;;25.49;43.88
34237;BME280;20501;45.956;13.632;2022-07-23T01:23:25;100514.69;;;25.55;43.30
34237;BME280;20501;45.956;13.632;2022-07-23T01:25:54;100519.25;;;25.61;43.08
34237;BME280;20501;45.956;13.632;2022-07-23T01:28:20;100523.69;;;25.62;45.00
34237;BME280;20501;45.956;13.632;2022-07-23T01:30:46;100513.72;;;25.61;45.93
34237;BME280;20501;45.956;13.632;2022-07-23T01:33:11;100511.78;;;25.49;46.88
34237;BME280;20501;45.956;13.632;2022-07-23T01:35:37;100512.28;;;25.46;42.90
34237;BME280;20501;45.956;13.632;2022-07-23T01:38:02;100511.91;;;25.55;43.99
34237;BME280;20501;45.956;13.632;2022-07-23T01:40:28;100509.38;;;25.65;46.11
34237;BME280;20501;45.956;13.632;2022-07-23T01:42:53;100500.84;;;25.67;42.42
34237;BME280;20501;45.956;13.632;2022-07-23T01:45:19;100501.31;;;25.75;42.97
34237;BME280;20501;45.956;13.632;2022-07-23T01:47:44;100500.94;;;25.84;42.86
34237;BME280;20501;45.956;13.632;2022-07-23T01:50:10;100501.66;;;25.79;44.68
34237;BME280;20501;45.956;13.632;2022-07-23T01:52:35;100505.06;;;25.69;44.85
34237;BME280;20501;45.956;13.632;2022-07-23T01:55:01;100492.44;;;25.61;43.44
34237;BME280;20501;45.956;13.632;2022-07-23T01:57:26;100501.81;;;25.48;43.18
34237;BME280;20501;45.956;13.632;2022-07-23T01:59:51;100503.13;;;25.46;43.58
34237;BME280;20501;45.956;13.632;2022-07-23T02:02:17;100503.88;;;25.41;44.54
34237;BME280;20501;45.956;13.632;2022-07-23T02:04:42;100503.34;;;25.32;46.83
34237;BME280;20501;45.956;13.632;2022-07-23T02:07:08;100500.13;;;25.24;45.83
34237;BME280;20501;45.956;13.632;2022-07-23T02:09:33;100503.34;;;25.21;45.83
34237;BME280;20501;45.956;13.632;2022-07-23T02:11:58;100500.50;;;25.15;46.06
34237;BME280;20501;45.956;13.632;2022-07-23T02:14:25;100496.25;;;25.13;46.00
34237;BME280;20501;45.956;13.632;2022-07-23T02:16:51;100498.28;;;25.17;45.73
34237;BME280;20501;45.956;13.632;2022-07-23T02:19:16;100490.13;;;25.11;45.28
34237;BME280;20501;45.956;13.632;2022-07-23T02:21:42;100491.22;;;25.10;46.11
34237;BME280;20501;45.956;13.632;2022-07-23T02:24:07;100491.81;;;25.12;45.11
34237;BME280;20501;45.956;13.632;2022-07-23T02:26:33;100490.97;;;25.11;45.79
34237;BME280;20501;45.956;13.632;2022-07-23T02:29:00;100495.91;;;25.09;44.05
34237;BME280;20501;45.956;13.632;2022-07-23T02:31:28;100488.31;;;25.16;44.10
34237;BME280;20501;45.956;13.632;2022-07-23T02:33:53;100483.28;;;25.25;44.32
34237;BME280;20501;45.956;13.632;2022-07-23T02:36:19;100487.00;;;25.31;43.67
34237;BME280;20501;45.956;13.632;2022-07-23T02:38:44;100487.72;;;25.38;43.26
34237;BME280;20501;45.956;13.632;2022-07-23T02:41:10;100490.47;;;25.38;44.27
34237;BME280;20501;45.956;13.632;2022-07-23T02:43:35;100487.97;;;25.25;43.82
34237;BME280;20501;45.956;13.632;2022-07-23T02:46:00;100487.63;;;25.21;43.93
34237;BME280;20501;45.956;13.632;2022-07-23T02:48:26;100503.72;;;25.24;43.76
34237;BME280;20501;45.956;13.632;2022-07-23T02:50:51;100502.38;;;25.15;47.05
34237;BME280;20501;45.956;13.632;2022-07-23T02:53:17;100505.97;;;25.03;44.97
34237;BME280;20501;45.956;13.632;2022-07-23T02:55:43;100510.31;;;24.99;45.69
34237;BME280;20501;45.956;13.632;2022-07-23T02:58:08;100509.47;;;24.99;45.86
34237;BME280;20501;45.956;13.632;2022-07-23T03:00:33;100510.44;;;24.93;46.76
34237;BME280;20501;45.956;13.632;2022-07-23T03:02:59;100516.88;;;24.86;47.18
34237;BME280;20501;45.956;13.632;2022-07-23T03:05:24;100517.69;;;24.75;47.08
34237;BME280;20501;45.956;13.632;2022-07-23T03:07:50;100524.09;;;24.76;47.60
34237;BME280;20501;45.956;13.632;2022-07-23T03:10:15;100517.34;;;24.71;47.32
34237;BME280;20501;45.956;13.632;2022-07-23T03:12:41;100527.06;;;24.74;47.55
34237;BME280;20501;45.956;13.632;2022-07-23T03:15:07;100523.22;;;24.75;47.31
34237;BME280;20501;45.956;13.632;2022-07-23T03:17:32;100528.13;;;24.73;46.89
34237;BME280;20501;45.956;13.632;2022-07-23T03:19:58;100526.84;;;24.76;47.32
34237;BME280;20501;45.956;13.632;2022-07-23T03:22:24;100520.94;;;24.72;48.38
34237;BME280;20501;45.956;13.632;2022-07-23T03:24:49;100526.69;;;24.70;47.13
34237;BME280;20501;45.956;13.632;2022-07-23T03:27:22;100531.59;;;24.68;47.11
34237;BME280;20501;45.956;13.632;2022-07-23T03:29:49;100521.00;;;24.65;47.24
34237;BME280;20501;45.956;13.632;2022-07-23T03:32:15;100525.19;;;24.56;48.00
34237;BME280;20501;45.956;13.632;2022-07-23T03:34:40;100530.81;;;24.49;47.82
34237;BME280;20501;45.956;13.632;2022-07-23T03:37:06;100529.72;;;24.50;47.68
34237;BME280;20501;45.956;13.632;2022-07-23T03:39:31;100537.53;;;24.53;48.10
34237;BME280;20501;45.956;13.632;2022-07-23T03:41:57;100531.38;;;24.51;48.35
34237;BME280;20501;45.956;13.632;2022-07-23T03:44:22;100536.31;;;24.49;48.31
34237;BME280;20501;45.956;13.632;2022-07-23T03:46:48;100528.50;;;24.46;48.65
34237;BME280;20501;45.956;13.632;2022-07-23T03:49:13;100529.34;;;24.47;47.78
34237;BME280;20501;45.956;13.632;2022-07-23T03:51:39;100529.44;;;24.40;47.87
34237;BME280;20501;45.956;13.632;2022-07-23T03:54:04;100527.53;;;24.40;47.80
34237;BME280;20501;45.956;13.632;2022-07-23T03:56:30;100537.41;;;24.48;46.85
34237;BME280;20501;45.956;13.632;2022-07-23T03:58:56;100541.28;;;24.59;48.30
34237;BME280;20501;45.956;13.632;2022-07-23T04:01:21;100533.59;;;24.61;46.73
34237;BME280;20501;45.956;13.632;2022-07-23T04:03:47;100531.69;;;24.62;46.43
34237;BME280;20501;45.956;13.632;2022-07-23T04:06:12;100523.88;;;24.58;46.25
34237;BME280;20501;45.956;13.632;2022-07-23T04:08:38;100522.78;;;24.60;46.79
34237;BME280;20501;45.956;13.632;2022-07-23T04:11:03;100525.47;;;24.66;45.31
34237;BME280;20501;45.956;13.632;2022-07-23T04:13:29;100520.56;;;24.68;48.26
34237;BME280;20501;45.956;13.632;2022-07-23T04:15:54;100529.06;;;24.67;46.87
34237;BME280;20501;45.956;13.632;2022-07-23T04:18:20;100525.56;;;24.60;47.85
34237;BME280;20501;45.956;13.632;2022-07-23T04:20:47;100524.50;;;24.61;46.44
34237;BME280;20501;45.956;13.632;2022-07-23T04:23:12;100524.25;;;24.62;46.52
34237;BME280;20501;45.956;13.632;2022-07-23T04:25:38;100528.53;;;24.58;46.55
34237;BME280;20501;45.956;13.632;2022-07-23T04:28:03;100528.78;;;24.56;46.80
34237;BME280;20501;45.956;13.632;2022-07-23T04:30:29;100532.28;;;24.64;47.42
34237;BME280;20501;45.956;13.632;2022-07-23T04:32:55;100532.28;;;24.64;47.92
34237;BME280;20501;45.956;13.632;2022-07-23T04:35:20;100529.50;;;24.64;48.55
34237;BME280;20501;45.956;13.632;2022-07-23T04:37:46;100524.66;;;24.47;49.34
34237;BME280;20501;45.956;13.632;2022-07-23T04:40:12;100534.72;;;24.41;49.35
34237;BME280;20501;45.956;13.632;2022-07-23T04:42:38;100527.59;;;24.34;49.60
34237;BME280;20501;45.956;13.632;2022-07-23T04:45:04;100523.31;;;24.38;49.80
34237;BME280;20501;45.956;13.632;2022-07-23T04:47:29;100526.28;;;24.36;49.94
34237;BME280;20501;45.956;13.632;2022-07-23T04:49:56;100519.19;;;24.29;49.86
34237;BME280;20501;45.956;13.632;2022-07-23T04:52:21;100519.31;;;24.34;49.39
34237;BME280;20501;45.956;13.632;2022-07-23T04:54:47;100522.00;;;24.40;49.67
34237;BME280;20501;45.956;13.632;2022-07-23T04:57:12;100513.72;;;24.40;48.76
34237;BME280;20501;45.956;13.632;2022-07-23T04:59:38;100517.00;;;24.49;48.03
34237;BME280;20501;45.956;13.632;2022-07-23T05:02:03;100514.50;;;24.60;46.38
34237;BME280;20501;45.956;13.632;2022-07-23T05:04:28;100511.41;;;24.68;47.77
34237;BME280;20501;45.956;13.632;2022-07-23T05:06:54;100508.59;;;24.75;46.12
34237;BME280;20501;45.956;13.632;2022-07-23T05:09:19;100514.63;;;24.83;46.81
34237;BME280;20501;45.956;13.632;2022-07-23T05:11:45;100514.72;;;24.88;46.05
34237;BME280;20501;45.956;13.632;2022-07-23T05:14:10;100501.53;;;24.91;47.57
34237;BME280;20501;45.956;13.632;2022-07-23T05:16:37;100503.06;;;24.86;46.88
34237;BME280;20501;45.956;13.632;2022-07-23T05:19:03;100505.63;;;24.88;47.80
34237;BME280;20501;45.956;13.632;2022-07-23T05:21:28;100497.09;;;24.90;48.05
34237;BME280;20501;45.956;13.632;2022-07-23T05:23:54;100495.38;;;24.88;48.27
34237;BME280;20501;45.956;13.632;2022-07-23T05:26:19;100490.94;;;24.87;48.10
34237;BME280;20501;45.956;13.632;2022-07-23T05:28:44;100510.28;;;24.87;47.88
34237;BME280;20501;45.956;13.632;2022-07-23T05:31:10;100508.50;;;24.93;48.05
34237;BME280;20501;45.956;13.632;2022-07-23T05:33:35;100507.16;;;24.96;48.74
34237;BME280;20501;45.956;13.632;2022-07-23T05:36:02;100508.38;;;25.00;50.06
34237;BME280;20501;45.956;13.632;2022-07-23T05:38:28;100508.03;;;24.96;49.63
34237;BME280;20501;45.956;13.632;2022-07-23T05:40:54;100505.00;;;24.98;49.22
34237;BME280;20501;45.956;13.632;2022-07-23T05:43:19;100505.00;;;24.98;49.67
34237;BME280;20501;45.956;13.632;2022-07-23T05:45:45;100509.09;;;24.95;48.50
34237;BME280;20501;45.956;13.632;2022-07-23T05:48:10;100511.41;;;24.98;48.45
34237;BME280;20501;45.956;13.632;2022-07-23T05:50:35;100507.06;;;25.02;48.52
34237;BME280;20501;45.956;13.632;2022-07-23T05:53:01;100512.22;;;25.11;48.19
34237;BME280;20501;45.956;13.632;2022-07-23T05:55:26;100510.44;;;25.16;48.36
34237;BME280;20501;45.956;13.632;2022-07-23T05:57:55;100520.53;;;25.23;47.97
34237;BME280;20501;45.956;13.632;2022-07-23T06:00:21;100515.38;;;25.26;47.87
34237;BME280;20501;45.956;13.632;2022-07-23T06:02:46;100522.34;;;25.29;48.29
34237;BME280;20501;45.956;13.632;2022-07-23T06:05:12;100522.47;;;25.34;48.18
34237;BME280;20501;45.956;13.632;2022-07-23T06:07:37;100525.84;;;25.36;48.53
34237;BME280;20501;45.956;13.632;2022-07-23T06:10:03;100527.41;;;25.44;48.14
34237;BME280;20501;45.956;13.632;2022-07-23T06:12:29;100530.31;;;25.49;48.63
34237;BME280;20501;45.956;13.632;2022-07-23T06:14:55;100529.34;;;25.55;48.18
34237;BME280;20501;45.956;13.632;2022-07-23T06:17:20;100538.13;;;25.64;48.03
34237;BME280;20501;45.956;13.632;2022-07-23T06:19:46;100529.09;;;25.69;47.77
34237;BME280;20501;45.956;13.632;2022-07-23T06:22:11;100536.19;;;25.76;47.95
34237;BME280;20501;45.956;13.632;2022-07-23T06:24:37;100539.66;;;25.84;47.18
34237;BME280;20501;45.956;13.632;2022-07-23T06:27:03;100537.00;;;25.89;47.86
34237;BME280;20501;45.956;13.632;2022-07-23T06:29:28;100552.97;;;25.99;46.77
34237;BME280;20501;45.956;13.632;2022-07-23T06:31:54;100540.09;;;26.04;47.67
34237;BME280;20501;45.956;13.632;2022-07-23T06:34:19;100549.47;;;26.03;46.55
34237;BME280;20501;45.956;13.632;2022-07-23T06:36:45;100551.50;;;26.08;46.59
34237;BME280;20501;45.956;13.632;2022-07-23T06:39:10;100551.06;;;26.11;46.91
34237;BME280;20501;45.956;13.632;2022-07-23T06:41:36;100549.72;;;26.14;46.69
34237;BME280;20501;45.956;13.632;2022-07-23T06:44:01;100559.34;;;26.23;46.63
34237;BME280;20501;45.956;13.632;2022-07-23T06:46:27;100554.03;;;26.33;45.91
34237;BME280;20501;45.956;13.632;2022-07-23T06:48:52;100565.03;;;26.45;45.48
34237;BME280;20501;45.956;13.632;2022-07-23T06:51:18;100558.13;;;26.60;45.35
34237;BME280;20501;45.956;13.632;2022-07-23T06:53:44;100556.38;;;26.70;45.26
34237;BME280;20501;45.956;13.632;2022-07-23T06:56:09;100558.38;;;26.87;44.57
34237;BME280;20501;45.956;13.632;2022-07-23T06:58:34;100558.31;;;26.99;46.04
34237;BME280;20501;45.956;13.632;2022-07-23T07:01:00;100556.31;;;27.11;43.76
34237;BME280;20501;45.956;13.632;2022-07-23T07:03:25;100558.75;;;27.25;43.64
34237;BME280;20501;45.956;13.632;2022-07-23T07:05:51;100556.53;;;27.27;43.55
34237;BME280;20501;45.956;13.632;2022-07-23T07:08:17;100550.16;;;27.26;43.52
34237;BME280;20501;45.956;13.632;2022-07-23T07:10:42;63816.28;;;-148.00;100.00
34237;BME280;20501;45.956;13.632;2022-07-23T07:13:08;63816.28;;;-148.00;100.00
34237;BME280;20501;45.956;13.632;2022-07-23T07:15:33;63816.28;;;-148.00;100.00
34237;BME280;20501;45.956;13.632;2022-07-23T07:17:59;63816.28;;;-148.00;100.00
34237;BME280;20501;45.956;13.632;2022-07-23T07:20:24;63816.28;;;-148.00;100.00
34237;BME280;20501;45.956;13.632;2022-07-23T07:22:49;63816.28;;;-148.00;100.00
34237;BME280;20501;45.956;13.632;2022-07-23T07:25:15;63816.28;;;-148.00;100.00
34237;BME280;20501;45.956;13.632;2022-07-23T07:27:40;63816.28;;;-148.00;100.00
34237;BME280;20501;45.956;13.632;2022-07-23T07:30:06;63816.28;;;-148.00;100.00
34237;BME280;20501;45.956;13.632;2022-07-23T07:32:32;63816.28;;;-148.00;100.00
34237;BME280;20501;45.956;13.632;2022-07-23T07:34:58;63816.28;;;-148.00;100.00
34237;BME280;20501;45.956;13.632;2022-07-23T07:37:24;63816.28;;;-148.00;100.00
34237;BME280;20501;45.956;13.632;2022-07-23T07:39:49;63816.28;;;-148.00;100.00
34237;BME280;20501;45.956;13.632;2022-07-23T07:42:14;63816.28;;;-148.00;100.00
34237;BME280;20501;45.956;13.632;2022-07-23T07:44:40;63816.28;;;-148.00;100.00
34237;BME280;20501;45.956;13.632;2022-07-23T07:47:06;63816.28;;;-148.00;100.00
34237;BME280;20501;45.956;13.632;2022-07-23T07:49:31;63816.28;;;-148.00;100.00
34237;BME280;20501;45.956;13.632;2022-07-23T07:51:57;63816.28;;;-148.00;100.00
34237;BME280;20501;45.956;13.632;2022-07-23T07:54:22;63816.28;;;-148.00;100.00
34237;BME280;20501;45.956;13.632;2022-07-23T07:56:48;63816.28;;;-148.00;100.00
34237;BME280;20501;45.956;13.632;2022-07-23T07:59:13;63816.28;;;-148.00;100.00
34237;BME280;20501;45.956;13.632;2022-07-23T08:01:40;63816.28;;;-148.00;100.00
34237;BME280;20501;45.956;13.632;2022-07-23T08:04:05;63816.28;;;-148.00;100.00
34237;BME280;20501;45.956;13.632;2022-07-23T08:06:31;63816.28;;;-148.00;100.00
34237;BME280;20501;45.956;13.632;2022-07-23T08:08:56;63816.28;;;-148.00;100.00
34237;BME280;20501;45.956;13.632;2022-07-23T08:11:22;63816.28;;;-148.00;100.00
34237;BME280;20501;45.956;13.632;2022-07-23T08:13:48;63816.28;;;-148.00;100.00
34237;BME280;20501;45.956;13.632;2022-07-23T08:16:14;63816.28;;;-148.00;100.00
34237;BME280;20501;45.956;13.632;2022-07-23T08:18:39;63816.28;;;-148.00;100.00
34237;BME280;20501;45.956;13.632;2022-07-23T08:21:04;63816.28;;;-148.00;100.00
34237;BME280;20501;45.956;13.632;2022-07-23T08:23:31;63816.28;;;-148.00;100.00
34237;BME280;20501;45.956;13.632;2022-07-23T08:25:56;63816.28;;;-148.00;100.00
34237;BME280;20501;45.956;13.632;2022-07-23T08:28:23;63816.28;;;-148.00;100.00
34237;BME280;20501;45.956;13.632;2022-07-23T08:30:48;63816.28;;;-148.00;100.00
34237;BME280;20501;45.956;13.632;2022-07-23T08:33:15;63816.28;;;-148.00;100.00
34237;BME280;20501;45.956;13.632;2022-07-23T08:35:48;63816.28;;;-148.00;100.00
34237;BME280;20501;45.956;13.632;2022-07-23T08:38:16;63816.28;;;-148.00;100.00
34237;BME280;20501;45.956;13.632;2022-07-23T08:40:44;63816.28;;;-148.00;100.00
34237;BME280;20501;45.956;13.632;2022-07-23T08:43:13;63816.28;;;-148.00;100.00
34237;BME280;20501;45.956;13.632;2022-07-23T08:45:43;63816.28;;;-148.00;100.00
34237;BME280;20501;45.956;13.632;2022-07-23T08:48:21;63816.28;;;-148.00;100.00
34237;BME280;20501;45.956;13.632;2022-07-23T08:50:50;63816.28;;;-148.00;100.00
34237;BME280;20501;45.956;13.632;2022-07-23T08:53:17;63816.28;;;-148.00;100.00
34237;BME280;20501;45.956;13.632;2022-07-23T08:55:44;63816.28;;;-148.00;100.00
34237;BME280;20501;45.956;13.632;2022-07-23T08:58:11;63816.28;;;-148.00;100.00
34237;BME280;20501;45.956;13.632;2022-07-23T09:00:37;63816.28;;;-148.00;100.00
34237;BME280;20501;45.956;13.632;2022-07-23T09:03:02;63816.28;;;-148.00;100.00
34237;BME280;20501;45.956;13.632;2022-07-23T09:05:28;63816.28;;;-148.00;100.00
34237;BME280;20501;45.956;13.632;2022-07-23T09:08:23;63816.28;;;-148.00;100.00
34237;BME280;20501;45.956;13.632;2022-07-23T09:13:48;63816.28;;;-148.00;100.00
34237;BME280;20501;45.956;13.632;2022-07-23T09:16:24;63816.28;;;-148.00;100.00
34237;BME280;20501;45.956;13.632;2022-07-23T09:18:58;63816.28;;;-148.00;100.00
34237;BME280;20501;45.956;13.632;2022-07-23T09:21:24;63816.28;;;-148.00;100.00
34237;BME280;20501;45.956;13.632;2022-07-23T09:24:10;63816.28;;;-148.00;100.00
34237;BME280;20501;45.956;13.632;2022-07-23T09:26:38;63816.28;;;-148.00;100.00
34237;BME280;20501;45.956;13.632;2022-07-23T09:29:15;63816.28;;;-148.00;100.00
34237;BME280;20501;45.956;13.632;2022-07-23T09:34:24;63816.28;;;-148.00;100.00
34237;BME280;20501;45.956;13.632;2022-07-23T09:36:52;63816.28;;;-148.00;100.00
34237;BME280;20501;45.956;13.632;2022-07-23T09:39:28;63816.28;;;-148.00;100.00
34237;BME280;20501;45.956;13.632;2022-07-23T09:41:56;63816.28;;;-148.00;100.00
34237;BME280;20501;45.956;13.632;2022-07-23T09:44:22;63816.28;;;-148.00;100.00
34237;BME280;20501;45.956;13.632;2022-07-23T09:46:49;63816.28;;;-148.00;100.00
34237;BME280;20501;45.956;13.632;2022-07-23T09:49:22;63816.28;;;-148.00;100.00
34237;BME280;20501;45.956;13.632;2022-07-23T09:51:54;63816.28;;;-148.00;100.00
34237;BME280;20501;45.956;13.632;2022-07-23T09:54:40;63816.28;;;-148.00;100.00
34237;BME280;20501;45.956;13.632;2022-07-23T09:57:08;63816.28;;;-148.00;100.00
34237;BME280;20501;45.956;13.632;2022-07-23T10:09:40;100493.09;;;30.35;32.02
34237;BME280;20501;45.956;13.632;2022-07-23T10:14:45;100478.50;;;28.46;36.94
34237;BME280;20501;45.956;13.632;2022-07-23T10:17:11;100483.09;;;29.71;31.71
34237;BME280;20501;45.956;13.632;2022-07-23T10:19:37;100481.59;;;29.47;30.90
34237;BME280;20501;45.956;13.632;2022-07-23T10:22:06;100479.72;;;30.22;30.28
34237;BME280;20501;45.956;13.632;2022-07-23T10:27:12;100477.56;;;30.60;29.17
34237;BME280;20501;45.956;13.632;2022-07-23T10:37:51;100473.38;;;30.99;28.59
34237;BME280;20501;45.956;13.632;2022-07-23T10:40:21;100466.44;;;30.65;29.94
34237;BME280;20501;45.956;13.632;2022-07-23T10:42:50;100462.78;;;30.85;30.01
34237;BME280;20501;45.956;13.632;2022-07-23T10:47:51;100470.00;;;29.71;32.88
34237;BME280;20501;45.956;13.632;2022-07-23T10:53:09;100461.38;;;30.57;31.23
34237;BME280;20501;45.956;13.632;2022-07-23T10:58:05;100453.34;;;30.71;30.46
34237;BME280;20501;45.956;13.632;2022-07-23T11:00:32;100457.78;;;30.87;30.11
34237;BME280;20501;45.956;13.632;2022-07-23T11:03:04;100452.44;;;30.39;30.98
34237;BME280;20501;45.956;13.632;2022-07-23T11:05:44;100450.78;;;31.00;30.51
34237;BME280;20501;45.956;13.632;2022-07-23T11:08:13;100453.03;;;31.09;31.07
34237;BME280;20501;45.956;13.632;2022-07-23T11:11:07;100446.63;;;30.77;30.95
34237;BME280;20501;45.956;13.632;2022-07-23T11:13:42;100447.66;;;30.19;32.35
34237;BME280;20501;45.956;13.632;2022-07-23T11:16:22;100446.06;;;30.65;31.28
34237;BME280;20501;45.956;13.632;2022-07-23T11:31:54;100432.63;;;31.29;28.82
34237;BME280;20501;45.956;13.632;2022-07-23T11:34:32;100432.59;;;31.44;28.19
34237;BME280;20501;45.956;13.632;2022-07-23T11:36:59;100439.63;;;31.26;27.97
34237;BME280;20501;45.956;13.632;2022-07-23T11:39:26;100430.72;;;30.98;28.35
34237;BME280;20501;45.956;13.632;2022-07-23T11:41:52;100429.81;;;31.39;27.91
34237;BME280;20501;45.956;13.632;2022-07-23T11:44:28;100428.50;;;31.16;27.71
34237;BME280;20501;45.956;13.632;2022-07-23T11:47:00;100425.38;;;31.33;27.95
34237;BME280;20501;45.956;13.632;2022-07-23T11:49:27;100426.63;;;31.82;27.49
34237;BME280;20501;45.956;13.632;2022-07-23T11:54:36;100419.22;;;31.41;27.17
34237;BME280;20501;45.956;13.632;2022-07-23T11:57:03;100423.97;;;31.36;27.83
34237;BME280;20501;45.956;13.632;2022-07-23T11:59:33;100413.84;;;32.16;25.21
34237;BME280;20501;45.956;13.632;2022-07-23T12:02:00;100416.56;;;31.81;25.82
34237;BME280;20501;45.956;13.632;2022-07-23T12:04:49;100411.34;;;31.54;26.04
34237;BME280;20501;45.956;13.632;2022-07-23T12:07:34;100416.16;;;31.38;26.96
34237;BME280;20501;45.956;13.632;2022-07-23T12:10:15;100402.63;;;31.76;25.34
34237;BME280;20501;45.956;13.632;2022-07-23T12:12:42;100408.91;;;31.37;26.61
34237;BME280;20501;45.956;13.632;2022-07-23T12:15:08;100403.38;;;30.49;28.06
34237;BME280;20501;45.956;13.632;2022-07-23T12:17:37;100402.03;;;30.56;28.61
34237;BME280;20501;45.956;13.632;2022-07-23T12:20:05;100400.06;;;30.98;24.93
34237;BME280;20501;45.956;13.632;2022-07-23T12:22:42;100400.56;;;31.21;25.80
34237;BME280;20501;45.956;13.632;2022-07-23T12:25:09;100393.09;;;31.82;25.71
34237;BME280;20501;45.956;13.632;2022-07-23T12:27:35;100408.75;;;32.33;25.26
34237;BME280;20501;45.956;13.632;2022-07-23T12:30:23;100392.25;;;30.85;28.57
34237;BME280;20501;45.956;13.632;2022-07-23T12:32:52;100388.78;;;32.05;25.12
34237;BME280;20501;45.956;13.632;2022-07-23T12:35:19;100396.97;;;31.86;26.39
34237;BME280;20501;45.956;13.632;2022-07-23T12:37:46;100389.06;;;31.38;27.23
34237;BME280;20501;45.956;13.632;2022-07-23T12:42:58;100376.50;;;32.41;23.68
34237;BME280;20501;45.956;13.632;2022-07-23T12:45:25;100373.84;;;32.20;23.84
34237;BME280;20501;45.956;13.632;2022-07-23T12:48:01;100387.00;;;32.20;24.84
34237;BME280;20501;45.956;13.632;2022-07-23T12:50:38;100382.56;;;31.74;25.85
34237;BME280;20501;45.956;13.632;2022-07-23T12:55:36;100371.91;;;31.76;25.33
34237;BME280;20501;45.956;13.632;2022-07-23T12:58:11;100368.31;;;32.55;24.45
34237;BME280;20501;45.956;13.632;2022-07-23T13:00:54;100379.63;;;32.69;23.71
34237;BME280;20501;45.956;13.632;2022-07-23T13:05:49;100372.56;;;32.02;23.72
34237;BME280;20501;45.956;13.632;2022-07-23T13:08:15;100373.19;;;31.99;24.27
34237;BME280;20501;45.956;13.632;2022-07-23T13:10:40;100361.47;;;32.37;23.43
34237;BME280;20501;45.956;13.632;2022-07-23T13:13:12;100360.22;;;31.69;25.63
34237;BME280;20501;45.956;13.632;2022-07-23T13:15:38;100364.56;;;31.30;26.64
34237;BME280;20501;45.956;13.632;2022-07-23T13:18:03;100358.63;;;32.02;24.19
34237;BME280;20501;45.956;13.632;2022-07-23T13:20:29;100360.72;;;31.76;25.68
34237;BME280;20501;45.956;13.632;2022-07-23T13:22:57;100358.03;;;32.10;25.47
34237;BME280;20501;45.956;13.632;2022-07-23T13:25:22;100361.84;;;31.80;24.83
34237;BME280;20501;45.956;13.632;2022-07-23T13:27:47;100345.69;;;31.67;24.55
34237;BME280;20501;45.956;13.632;2022-07-23T13:30:13;100351.56;;;32.10;24.28
34237;BME280;20501;45.956;13.632;2022-07-23T13:32:40;100352.81;;;31.93;24.98
34237;BME280;20501;45.956;13.632;2022-07-23T13:35:06;100350.38;;;31.06;26.54